Terminal Aerodrome Forecast
Issued by NWS

Home | Current Version | Previous Version | Graphics & Text | Print | Product List | Glossary On
Versions: 1 2 3 4 5 6 7 8 9 10 11 12 13 14 15 16 17 18 19 20
000
FTUS43 KGRB 290500
TAFAUW
TAF
KAUW 290532Z 2906/3006 VRB03KT P6SM SCT250
      TEMPO 2908/2910 3SM BR
     FM291100 31004KT 5SM BR VCSH SCT015 BKN050
     FM291400 35008G15KT P6SM VCSH SCT010 OVC020
      TEMPO 2915/2918 5SM -SHRA BR BKN010
     FM291800 35009G15KT P6SM BKN018
     FM300300 03007KT P6SM SCT022=

USA.gov is the U.S. government's official web portal to all federal, state and local government web resources and services.